Terminal Aerodrome Forecast
Issued by NWS Quad Cities IA IL

Home | Current Version | Previous Version | Text Only | Print | Product List | Glossary On
Versions: 1 2 3 4 5 6 7 8 9 10 11 12 13
000
FTUS43 KDVN 240520
TAFMLI
TAF
KMLI 240520Z 2406/2506 12004KT P6SM BKN080
     FM240900 12008KT P6SM VCSH BKN050
     FM242000 16015G22KT P6SM VCTS BKN035CB
      TEMPO 2421/2501 3SM TSRA BR OVC025CB
     FM250100 16011KT 6SM BR OVC025=

USA.gov is the U.S. government's official web portal to all federal, state and local government web resources and services.